sensor_id;sensor_type;location;lat;lon;timestamp;pressure;altitude;pressure_sealevel;temperature;humidity
84267;BME280;74414;51.098;13.716;2024-02-26T00:00:10;98684.28;;;1.09;86.10
84267;BME280;74414;51.098;13.716;2024-02-26T00:02:37;98687.56;;;1.14;86.49
84267;BME280;74414;51.098;13.716;2024-02-26T00:05:06;98682.25;;;1.18;86.07
84267;BME280;74414;51.098;13.716;2024-02-26T00:07:32;98678.16;;;1.12;86.39
84267;BME280;74414;51.098;13.716;2024-02-26T00:09:57;98678.34;;;1.07;86.51
84267;BME280;74414;51.098;13.716;2024-02-26T00:12:23;98677.78;;;1.01;86.37
84267;BME280;74414;51.098;13.716;2024-02-26T00:14:48;98665.16;;;0.97;86.18
84267;BME280;74414;51.098;13.716;2024-02-26T00:17:15;98670.38;;;0.89;86.38
84267;BME280;74414;51.098;13.716;2024-02-26T00:19:40;98670.91;;;0.83;86.08
84267;BME280;74414;51.098;13.716;2024-02-26T00:22:06;98672.28;;;0.77;86.16
84267;BME280;74414;51.098;13.716;2024-02-26T00:24:31;98670.19;;;0.74;86.26
84267;BME280;74414;51.098;13.716;2024-02-26T00:26:57;98663.06;;;0.81;86.15
84267;BME280;74414;51.098;13.716;2024-02-26T00:29:22;98671.50;;;0.88;86.46
84267;BME280;74414;51.098;13.716;2024-02-26T00:31:48;98661.84;;;0.91;86.20
84267;BME280;74414;51.098;13.716;2024-02-26T00:34:13;98664.91;;;0.89;86.25
84267;BME280;74414;51.098;13.716;2024-02-26T00:36:39;98656.28;;;0.87;86.28
84267;BME280;74414;51.098;13.716;2024-02-26T00:39:04;98661.72;;;0.87;86.61
84267;BME280;74414;51.098;13.716;2024-02-26T00:41:29;98661.84;;;0.79;86.86
84267;BME280;74414;51.098;13.716;2024-02-26T00:43:55;98658.72;;;0.68;86.32
84267;BME280;74414;51.098;13.716;2024-02-26T00:46:20;98651.44;;;0.60;86.71
84267;BME280;74414;51.098;13.716;2024-02-26T00:48:45;98653.44;;;0.51;86.91
84267;BME280;74414;51.098;13.716;2024-02-26T00:51:11;98655.59;;;0.46;86.86
84267;BME280;74414;51.098;13.716;2024-02-26T00:53:36;98645.50;;;0.46;86.65
84267;BME280;74414;51.098;13.716;2024-02-26T00:56:02;98643.41;;;0.43;86.83
84267;BME280;74414;51.098;13.716;2024-02-26T00:58:27;98655.91;;;0.44;86.96
84267;BME280;74414;51.098;13.716;2024-02-26T01:00:52;98648.41;;;0.41;86.91
84267;BME280;74414;51.098;13.716;2024-02-26T01:03:18;98642.50;;;0.39;86.92
84267;BME280;74414;51.098;13.716;2024-02-26T01:05:45;98642.84;;;0.38;86.65
84267;BME280;74414;51.098;13.716;2024-02-26T01:08:11;98644.97;;;0.32;86.71
84267;BME280;74414;51.098;13.716;2024-02-26T01:10:37;98646.41;;;0.30;86.99
84267;BME280;74414;51.098;13.716;2024-02-26T01:13:03;98641.66;;;0.27;86.58
84267;BME280;74414;51.098;13.716;2024-02-26T01:15:28;98639.91;;;0.22;86.76
84267;BME280;74414;51.098;13.716;2024-02-26T01:17:54;98639.91;;;0.22;86.47
84267;BME280;74414;51.098;13.716;2024-02-26T01:20:20;98638.00;;;0.23;86.81
84267;BME280;74414;51.098;13.716;2024-02-26T01:22:46;98635.63;;;0.21;86.76
84267;BME280;74414;51.098;13.716;2024-02-26T01:25:12;98635.63;;;0.21;87.18
84267;BME280;74414;51.098;13.716;2024-02-26T01:27:38;98631.75;;;0.22;87.09
84267;BME280;74414;51.098;13.716;2024-02-26T01:30:05;98627.47;;;0.21;87.51
84267;BME280;74414;51.098;13.716;2024-02-26T01:32:31;98620.53;;;0.24;86.98
84267;BME280;74414;51.098;13.716;2024-02-26T01:34:57;98619.75;;;0.23;86.92
84267;BME280;74414;51.098;13.716;2024-02-26T01:37:22;98607.72;;;0.24;87.44
84267;BME280;74414;51.098;13.716;2024-02-26T01:39:48;98614.16;;;0.20;86.98
84267;BME280;74414;51.098;13.716;2024-02-26T01:42:13;98610.84;;;0.14;87.28
84267;BME280;74414;51.098;13.716;2024-02-26T01:44:39;98603.16;;;0.16;87.26
84267;BME280;74414;51.098;13.716;2024-02-26T01:47:06;98607.38;;;0.26;86.98
84267;BME280;74414;51.098;13.716;2024-02-26T01:49:33;98604.31;;;0.27;87.29
84267;BME280;74414;51.098;13.716;2024-02-26T01:52:00;98611.59;;;0.23;86.84
84267;BME280;74414;51.098;13.716;2024-02-26T01:54:25;98612.91;;;0.17;87.08
84267;BME280;74414;51.098;13.716;2024-02-26T01:56:51;98601.09;;;0.13;87.13
84267;BME280;74414;51.098;13.716;2024-02-26T01:59:16;98585.44;;;0.10;87.11
84267;BME280;74414;51.098;13.716;2024-02-26T02:01:44;98589.63;;;0.08;87.43
84267;BME280;74414;51.098;13.716;2024-02-26T02:04:13;98587.91;;;0.03;87.18
84267;BME280;74414;51.098;13.716;2024-02-26T02:06:41;98586.16;;;-0.02;87.01
84267;BME280;74414;51.098;13.716;2024-02-26T02:09:08;98583.66;;;-0.07;87.33
84267;BME280;74414;51.098;13.716;2024-02-26T02:11:34;98593.13;;;-0.13;86.85
84267;BME280;74414;51.098;13.716;2024-02-26T02:14:01;98584.84;;;-0.16;86.71
84267;BME280;74414;51.098;13.716;2024-02-26T02:16:27;98581.78;;;-0.15;86.71
84267;BME280;74414;51.098;13.716;2024-02-26T02:18:53;98585.78;;;-0.12;87.15
84267;BME280;74414;51.098;13.716;2024-02-26T02:21:18;98581.44;;;-0.13;87.49
84267;BME280;74414;51.098;13.716;2024-02-26T02:23:44;98582.94;;;-0.16;87.08
84267;BME280;74414;51.098;13.716;2024-02-26T02:26:13;98574.63;;;-0.19;87.16
84267;BME280;74414;51.098;13.716;2024-02-26T02:28:39;98581.66;;;-0.18;86.98
84267;BME280;74414;51.098;13.716;2024-02-26T02:31:05;98578.81;;;-0.22;87.06
84267;BME280;74414;51.098;13.716;2024-02-26T02:33:32;98572.91;;;-0.24;87.31
84267;BME280;74414;51.098;13.716;2024-02-26T02:35:59;98579.94;;;-0.23;87.11
84267;BME280;74414;51.098;13.716;2024-02-26T02:38:24;98572.91;;;-0.24;86.96
84267;BME280;74414;51.098;13.716;2024-02-26T02:40:54;98575.53;;;-0.15;87.13
84267;BME280;74414;51.098;13.716;2024-02-26T02:43:19;98567.22;;;-0.10;87.19
84267;BME280;74414;51.098;13.716;2024-02-26T02:45:45;98564.03;;;-0.12;87.05
84267;BME280;74414;51.098;13.716;2024-02-26T02:48:11;98565.13;;;-0.13;87.80
84267;BME280;74414;51.098;13.716;2024-02-26T02:50:36;98567.72;;;-0.17;87.66
84267;BME280;74414;51.098;13.716;2024-02-26T02:53:02;98562.88;;;-0.11;87.34
84267;BME280;74414;51.098;13.716;2024-02-26T02:55:27;98567.25;;;0.02;87.91
84267;BME280;74414;51.098;13.716;2024-02-26T02:57:53;98574.72;;;0.26;88.20
84267;BME280;74414;51.098;13.716;2024-02-26T03:00:19;98581.03;;;0.38;87.84
84267;BME280;74414;51.098;13.716;2024-02-26T03:02:44;98578.94;;;0.35;87.98
84267;BME280;74414;51.098;13.716;2024-02-26T03:05:10;98586.47;;;0.38;87.71
84267;BME280;74414;51.098;13.716;2024-02-26T03:07:36;98576.69;;;0.37;87.91
84267;BME280;74414;51.098;13.716;2024-02-26T03:10:01;98580.44;;;0.33;88.07
84267;BME280;74414;51.098;13.716;2024-02-26T03:12:27;98584.50;;;0.39;87.44
84267;BME280;74414;51.098;13.716;2024-02-26T03:14:53;98590.31;;;0.37;87.79
84267;BME280;74414;51.098;13.716;2024-02-26T03:17:20;98596.63;;;0.29;87.78
84267;BME280;74414;51.098;13.716;2024-02-26T03:19:46;98590.94;;;0.22;87.91
84267;BME280;74414;51.098;13.716;2024-02-26T03:22:13;98587.50;;;0.13;88.18
84267;BME280;74414;51.098;13.716;2024-02-26T03:24:38;98588.34;;;0.05;88.25
84267;BME280;74414;51.098;13.716;2024-02-26T03:27:04;98581.41;;;-0.05;87.96
84267;BME280;74414;51.098;13.716;2024-02-26T03:29:35;98582.72;;;-0.11;87.72
84267;BME280;74414;51.098;13.716;2024-02-26T03:32:00;98594.94;;;-0.17;87.86
84267;BME280;74414;51.098;13.716;2024-02-26T03:34:25;98601.63;;;-0.14;87.83
84267;BME280;74414;51.098;13.716;2024-02-26T03:36:51;98606.53;;;-0.08;87.69
84267;BME280;74414;51.098;13.716;2024-02-26T03:39:17;98602.94;;;0.00;87.80
84267;BME280;74414;51.098;13.716;2024-02-26T03:41:42;98605.53;;;0.18;88.18
84267;BME280;74414;51.098;13.716;2024-02-26T03:44:07;98614.09;;;0.28;88.26
84267;BME280;74414;51.098;13.716;2024-02-26T03:46:32;98606.78;;;0.20;87.87
84267;BME280;74414;51.098;13.716;2024-02-26T03:48:58;98609.44;;;0.08;87.78
84267;BME280;74414;51.098;13.716;2024-02-26T03:51:23;98608.06;;;0.02;88.04
84267;BME280;74414;51.098;13.716;2024-02-26T03:53:48;98606.22;;;-0.06;87.88
84267;BME280;74414;51.098;13.716;2024-02-26T03:56:14;98611.19;;;-0.08;87.70
84267;BME280;74414;51.098;13.716;2024-02-26T03:58:39;98609.47;;;-0.13;88.39
84267;BME280;74414;51.098;13.716;2024-02-26T04:01:07;98611.59;;;-0.18;88.01
84267;BME280;74414;51.098;13.716;2024-02-26T04:03:32;98609.66;;;-0.18;87.73
84267;BME280;74414;51.098;13.716;2024-02-26T04:05:58;98609.13;;;-0.11;88.07
84267;BME280;74414;51.098;13.716;2024-02-26T04:08:23;98616.81;;;-0.13;87.94
84267;BME280;74414;51.098;13.716;2024-02-26T04:10:48;98617.66;;;-0.21;87.87
84267;BME280;74414;51.098;13.716;2024-02-26T04:13:14;98618.53;;;-0.29;88.06
84267;BME280;74414;51.098;13.716;2024-02-26T04:15:39;98616.19;;;-0.39;87.84
84267;BME280;74414;51.098;13.716;2024-02-26T04:18:05;98616.38;;;-0.44;87.97
84267;BME280;74414;51.098;13.716;2024-02-26T04:20:30;98622.94;;;-0.45;87.70
84267;BME280;74414;51.098;13.716;2024-02-26T04:22:56;98618.00;;;-0.43;87.99
84267;BME280;74414;51.098;13.716;2024-02-26T04:25:21;98620.63;;;-0.35;87.62
84267;BME280;74414;51.098;13.716;2024-02-26T04:27:46;98621.91;;;-0.12;87.83
84267;BME280;74414;51.098;13.716;2024-02-26T04:30:12;98611.00;;;-0.03;87.63
84267;BME280;74414;51.098;13.716;2024-02-26T04:32:37;98610.72;;;-0.10;87.75
84267;BME280;74414;51.098;13.716;2024-02-26T04:35:03;98610.31;;;-0.21;87.84
84267;BME280;74414;51.098;13.716;2024-02-26T04:37:28;98623.66;;;-0.07;87.91
84267;BME280;74414;51.098;13.716;2024-02-26T04:40:00;98614.16;;;-0.01;88.05
84267;BME280;74414;51.098;13.716;2024-02-26T04:42:26;98619.50;;;-0.05;87.95
84267;BME280;74414;51.098;13.716;2024-02-26T04:44:51;98625.56;;;-0.08;87.77
84267;BME280;74414;51.098;13.716;2024-02-26T04:47:17;98619.41;;;-0.17;87.57
84267;BME280;74414;51.098;13.716;2024-02-26T04:49:42;98620.06;;;-0.20;87.98
84267;BME280;74414;51.098;13.716;2024-02-26T04:52:07;98623.91;;;-0.21;87.83
84267;BME280;74414;51.098;13.716;2024-02-26T04:54:33;98621.66;;;-0.19;88.19
84267;BME280;74414;51.098;13.716;2024-02-26T04:56:58;98622.66;;;-0.03;87.84
84267;BME280;74414;51.098;13.716;2024-02-26T04:59:24;98628.28;;;-0.08;87.88
84267;BME280;74414;51.098;13.716;2024-02-26T05:01:49;98640.97;;;-0.12;87.99
84267;BME280;74414;51.098;13.716;2024-02-26T05:04:17;98636.53;;;-0.16;87.94
84267;BME280;74414;51.098;13.716;2024-02-26T05:06:42;98632.03;;;-0.12;87.98
84267;BME280;74414;51.098;13.716;2024-02-26T05:09:07;98632.97;;;-0.08;87.68
84267;BME280;74414;51.098;13.716;2024-02-26T05:11:33;98635.69;;;-0.08;88.18
84267;BME280;74414;51.098;13.716;2024-02-26T05:13:58;98641.13;;;-0.08;87.97
84267;BME280;74414;51.098;13.716;2024-02-26T05:16:25;98641.38;;;-0.01;88.04
84267;BME280;74414;51.098;13.716;2024-02-26T05:18:52;98649.66;;;0.03;88.05
84267;BME280;74414;51.098;13.716;2024-02-26T05:21:17;98646.91;;;0.11;88.12
84267;BME280;74414;51.098;13.716;2024-02-26T05:23:43;98648.34;;;0.09;88.50
84267;BME280;74414;51.098;13.716;2024-02-26T05:26:09;98648.34;;;0.09;88.27
84267;BME280;74414;51.098;13.716;2024-02-26T05:28:34;98650.44;;;0.12;88.41
84267;BME280;74414;51.098;13.716;2024-02-26T05:31:00;98654.03;;;0.16;88.06
84267;BME280;74414;51.098;13.716;2024-02-26T05:33:25;98655.56;;;0.25;88.12
84267;BME280;74414;51.098;13.716;2024-02-26T05:35:51;98652.78;;;0.34;88.04
84267;BME280;74414;51.098;13.716;2024-02-26T05:38:16;98654.72;;;0.33;88.12
84267;BME280;74414;51.098;13.716;2024-02-26T05:40:41;98648.69;;;0.28;88.36
84267;BME280;74414;51.098;13.716;2024-02-26T05:43:06;98650.81;;;0.22;88.14
84267;BME280;74414;51.098;13.716;2024-02-26T05:45:32;98661.75;;;0.34;88.49
84267;BME280;74414;51.098;13.716;2024-02-26T05:47:58;98662.56;;;0.35;88.42
84267;BME280;74414;51.098;13.716;2024-02-26T05:50:23;98665.81;;;0.28;88.50
84267;BME280;74414;51.098;13.716;2024-02-26T05:52:48;98658.50;;;0.20;88.30
84267;BME280;74414;51.098;13.716;2024-02-26T05:55:14;98661.31;;;0.12;88.60
84267;BME280;74414;51.098;13.716;2024-02-26T05:57:39;98664.34;;;0.10;88.32
84267;BME280;74414;51.098;13.716;2024-02-26T06:00:05;98673.97;;;0.08;88.45
84267;BME280;74414;51.098;13.716;2024-02-26T06:02:31;98675.09;;;0.07;89.04
84267;BME280;74414;51.098;13.716;2024-02-26T06:04:56;98667.88;;;0.11;88.57
84267;BME280;74414;51.098;13.716;2024-02-26T06:07:22;98675.56;;;0.09;88.34
84267;BME280;74414;51.098;13.716;2024-02-26T06:09:48;98673.66;;;0.09;88.61
84267;BME280;74414;51.098;13.716;2024-02-26T06:12:13;98660.75;;;0.18;88.92
84267;BME280;74414;51.098;13.716;2024-02-26T06:14:39;98665.81;;;0.28;88.55
84267;BME280;74414;51.098;13.716;2024-02-26T06:17:04;98667.28;;;0.46;88.93
84267;BME280;74414;51.098;13.716;2024-02-26T06:19:29;98670.31;;;0.65;89.20
84267;BME280;74414;51.098;13.716;2024-02-26T06:21:54;98676.75;;;0.93;88.90
84267;BME280;74414;51.098;13.716;2024-02-26T06:24:20;98676.72;;;1.62;89.42
84267;BME280;74414;51.098;13.716;2024-02-26T06:26:47;98694.56;;;2.60;89.45
84267;BME280;74414;51.098;13.716;2024-02-26T06:29:13;98679.72;;;3.47;89.61
84267;BME280;74414;51.098;13.716;2024-02-26T06:31:38;98681.03;;;4.35;89.45
84267;BME280;74414;51.098;13.716;2024-02-26T06:34:03;98686.31;;;5.01;89.44
84267;BME280;74414;51.098;13.716;2024-02-26T06:36:29;98689.53;;;5.48;89.47
84267;BME280;74414;51.098;13.716;2024-02-26T06:38:56;98687.72;;;5.78;89.25
84267;BME280;74414;51.098;13.716;2024-02-26T06:41:22;98691.25;;;6.27;88.93
84267;BME280;74414;51.098;13.716;2024-02-26T06:43:52;98687.38;;;6.62;89.00
84267;BME280;74414;51.098;13.716;2024-02-26T06:46:17;98691.53;;;6.49;88.94
84267;BME280;74414;51.098;13.716;2024-02-26T06:48:42;98691.66;;;6.29;88.09
84267;BME280;74414;51.098;13.716;2024-02-26T06:51:08;98692.03;;;6.58;84.62
84267;BME280;74414;51.098;13.716;2024-02-26T06:53:33;98684.06;;;7.12;74.89
84267;BME280;74414;51.098;13.716;2024-02-26T06:55:58;98684.06;;;7.92;69.61
84267;BME280;74414;51.098;13.716;2024-02-26T06:58:23;98679.06;;;8.70;64.53
84267;BME280;74414;51.098;13.716;2024-02-26T07:00:49;98691.56;;;9.60;65.28
84267;BME280;74414;51.098;13.716;2024-02-26T07:03:14;98688.06;;;10.05;56.70
84267;BME280;74414;51.098;13.716;2024-02-26T07:05:40;98691.22;;;9.58;55.18
84267;BME280;74414;51.098;13.716;2024-02-26T07:08:06;98687.59;;;8.44;58.24
84267;BME280;74414;51.098;13.716;2024-02-26T07:10:31;98688.34;;;8.37;59.94
84267;BME280;74414;51.098;13.716;2024-02-26T07:12:56;98701.13;;;8.70;58.37
84267;BME280;74414;51.098;13.716;2024-02-26T07:15:22;98701.63;;;8.93;57.41
84267;BME280;74414;51.098;13.716;2024-02-26T07:17:47;98699.41;;;9.37;56.56
84267;BME280;74414;51.098;13.716;2024-02-26T07:20:14;98702.13;;;9.16;56.55
84267;BME280;74414;51.098;13.716;2024-02-26T07:22:39;98687.03;;;8.85;57.51
84267;BME280;74414;51.098;13.716;2024-02-26T07:25:06;98693.72;;;8.84;57.68
84267;BME280;74414;51.098;13.716;2024-02-26T07:27:34;98688.16;;;8.74;57.82
84267;BME280;74414;51.098;13.716;2024-02-26T07:29:59;98690.31;;;9.12;56.89
84267;BME280;74414;51.098;13.716;2024-02-26T07:32:24;98698.72;;;9.75;55.08
84267;BME280;74414;51.098;13.716;2024-02-26T07:34:50;98697.53;;;9.83;54.98
84267;BME280;74414;51.098;13.716;2024-02-26T07:37:15;98699.88;;;9.57;54.81
84267;BME280;74414;51.098;13.716;2024-02-26T07:39:40;98697.56;;;10.04;54.03
84267;BME280;74414;51.098;13.716;2024-02-26T07:42:06;98704.09;;;11.02;51.75
84267;BME280;74414;51.098;13.716;2024-02-26T07:44:32;98705.25;;;11.08;50.55
84267;BME280;74414;51.098;13.716;2024-02-26T07:46:58;98705.13;;;11.98;49.73
84267;BME280;74414;51.098;13.716;2024-02-26T07:49:23;98702.31;;;12.02;48.15
84267;BME280;74414;51.098;13.716;2024-02-26T07:51:49;98703.00;;;12.98;46.51
84267;BME280;74414;51.098;13.716;2024-02-26T07:54:14;98704.50;;;13.66;45.72
84267;BME280;74414;51.098;13.716;2024-02-26T07:56:41;98704.97;;;14.37;43.22
84267;BME280;74414;51.098;13.716;2024-02-26T07:59:06;98707.84;;;14.77;43.42
84267;BME280;74414;51.098;13.716;2024-02-26T08:01:32;98698.13;;;15.04;41.68
84267;BME280;74414;51.098;13.716;2024-02-26T08:03:58;98715.22;;;15.26;41.30
84267;BME280;74414;51.098;13.716;2024-02-26T08:06:24;98714.00;;;14.88;41.85
84267;BME280;74414;51.098;13.716;2024-02-26T08:08:50;98717.06;;;14.93;43.00
84267;BME280;74414;51.098;13.716;2024-02-26T08:11:15;98717.59;;;14.88;42.96
84267;BME280;74414;51.098;13.716;2024-02-26T08:13:41;98722.41;;;15.82;42.37
84267;BME280;74414;51.098;13.716;2024-02-26T08:16:07;98717.13;;;16.52;40.48
84267;BME280;74414;51.098;13.716;2024-02-26T08:18:32;98713.59;;;16.64;39.47
84267;BME280;74414;51.098;13.716;2024-02-26T08:20:57;98711.31;;;16.43;40.35
84267;BME280;74414;51.098;13.716;2024-02-26T08:23:23;98720.38;;;15.47;41.51
84267;BME280;74414;51.098;13.716;2024-02-26T08:25:48;98717.88;;;15.13;42.42
84267;BME280;74414;51.098;13.716;2024-02-26T08:28:14;98723.81;;;14.96;43.27
84267;BME280;74414;51.098;13.716;2024-02-26T08:30:39;98719.44;;;14.95;44.12
84267;BME280;74414;51.098;13.716;2024-02-26T08:33:04;98721.66;;;14.61;44.43
84267;BME280;74414;51.098;13.716;2024-02-26T08:35:30;98721.66;;;13.31;47.58
84267;BME280;74414;51.098;13.716;2024-02-26T08:37:55;98716.09;;;13.88;46.82
84267;BME280;74414;51.098;13.716;2024-02-26T08:40:21;98719.91;;;13.44;47.89
84267;BME280;74414;51.098;13.716;2024-02-26T08:42:46;98726.78;;;14.16;46.64
84267;BME280;74414;51.098;13.716;2024-02-26T08:45:11;98725.19;;;14.65;45.48
84267;BME280;74414;51.098;13.716;2024-02-26T08:47:37;98730.53;;;15.18;44.35
84267;BME280;74414;51.098;13.716;2024-02-26T08:50:04;98722.34;;;14.45;45.85
84267;BME280;74414;51.098;13.716;2024-02-26T08:52:29;98720.19;;;13.80;47.14
84267;BME280;74414;51.098;13.716;2024-02-26T08:54:55;98725.56;;;14.43;46.88
84267;BME280;74414;51.098;13.716;2024-02-26T08:57:20;98726.16;;;14.97;45.09
84267;BME280;74414;51.098;13.716;2024-02-26T08:59:45;98728.53;;;16.09;42.88
84267;BME280;74414;51.098;13.716;2024-02-26T09:02:11;98724.94;;;16.09;42.54
84267;BME280;74414;51.098;13.716;2024-02-26T09:04:36;98726.59;;;14.96;44.40
84267;BME280;74414;51.098;13.716;2024-02-26T09:07:02;98730.53;;;14.75;44.89
84267;BME280;74414;51.098;13.716;2024-02-26T09:09:27;98726.56;;;14.76;45.61
84267;BME280;74414;51.098;13.716;2024-02-26T09:11:52;98724.66;;;15.71;43.42
84267;BME280;74414;51.098;13.716;2024-02-26T09:14:20;98722.47;;;15.79;43.61
84267;BME280;74414;51.098;13.716;2024-02-26T09:16:45;98720.41;;;15.99;42.31
84267;BME280;74414;51.098;13.716;2024-02-26T09:19:10;98715.09;;;14.94;44.46
84267;BME280;74414;51.098;13.716;2024-02-26T09:21:35;98719.06;;;14.73;45.19
84267;BME280;74414;51.098;13.716;2024-02-26T09:24:01;98730.06;;;14.80;45.37
84267;BME280;74414;51.098;13.716;2024-02-26T09:26:26;98717.84;;;14.74;45.00
84267;BME280;74414;51.098;13.716;2024-02-26T09:28:52;98713.50;;;14.50;45.39
84267;BME280;74414;51.098;13.716;2024-02-26T09:31:17;98722.16;;;14.55;45.33
84267;BME280;74414;51.098;13.716;2024-02-26T09:33:43;98725.38;;;15.16;44.12
84267;BME280;74414;51.098;13.716;2024-02-26T09:36:09;98725.81;;;14.26;45.96
84267;BME280;74414;51.098;13.716;2024-02-26T09:38:36;98734.84;;;15.78;43.32
84267;BME280;74414;51.098;13.716;2024-02-26T09:41:04;98732.22;;;16.99;40.09
84267;BME280;74414;51.098;13.716;2024-02-26T09:43:34;98733.72;;;17.04;40.38
84267;BME280;74414;51.098;13.716;2024-02-26T09:46:00;98735.81;;;16.55;41.18
84267;BME280;74414;51.098;13.716;2024-02-26T09:48:25;98721.78;;;15.35;43.74
84267;BME280;74414;51.098;13.716;2024-02-26T09:50:51;98730.75;;;16.50;41.71
84267;BME280;74414;51.098;13.716;2024-02-26T09:53:16;98733.25;;;16.77;40.72
84267;BME280;74414;51.098;13.716;2024-02-26T09:55:43;98740.25;;;16.53;41.53
84267;BME280;74414;51.098;13.716;2024-02-26T09:58:09;98736.53;;;17.99;39.13
84267;BME280;74414;51.098;13.716;2024-02-26T10:00:39;98740.47;;;18.86;36.69
84267;BME280;74414;51.098;13.716;2024-02-26T10:03:09;98737.19;;;18.28;38.15
84267;BME280;74414;51.098;13.716;2024-02-26T10:05:38;98740.88;;;17.75;38.94
84267;BME280;74414;51.098;13.716;2024-02-26T10:08:05;98740.78;;;18.54;37.81
84267;BME280;74414;51.098;13.716;2024-02-26T10:10:32;98749.34;;;17.59;38.76
84267;BME280;74414;51.098;13.716;2024-02-26T10:13:00;98755.97;;;19.12;36.24
84267;BME280;74414;51.098;13.716;2024-02-26T10:15:26;98743.81;;;18.09;37.87
84267;BME280;74414;51.098;13.716;2024-02-26T10:17:52;98762.22;;;20.03;35.18
84267;BME280;74414;51.098;13.716;2024-02-26T10:20:18;98765.16;;;19.47;34.96
84267;BME280;74414;51.098;13.716;2024-02-26T10:22:46;98761.91;;;17.67;38.21
84267;BME280;74414;51.098;13.716;2024-02-26T10:25:12;98764.84;;;19.45;36.53
84267;BME280;74414;51.098;13.716;2024-02-26T10:27:40;98767.03;;;19.28;35.67
84267;BME280;74414;51.098;13.716;2024-02-26T10:30:20;98764.81;;;19.88;34.77
84267;BME280;74414;51.098;13.716;2024-02-26T10:32:47;98750.22;;;19.16;35.52
84267;BME280;74414;51.098;13.716;2024-02-26T10:35:16;98754.81;;;20.57;34.08
84267;BME280;74414;51.098;13.716;2024-02-26T10:37:42;98761.63;;;18.99;35.79
84267;BME280;74414;51.098;13.716;2024-02-26T10:40:12;98747.16;;;18.42;36.97
84267;BME280;74414;51.098;13.716;2024-02-26T10:42:37;98747.06;;;18.07;37.40
84267;BME280;74414;51.098;13.716;2024-02-26T10:45:07;98755.81;;;19.50;34.89
84267;BME280;74414;51.098;13.716;2024-02-26T10:47:34;98758.31;;;20.31;33.38
84267;BME280;74414;51.098;13.716;2024-02-26T10:50:02;98750.38;;;19.77;34.25
84267;BME280;74414;51.098;13.716;2024-02-26T10:52:31;98756.56;;;19.63;34.77
84267;BME280;74414;51.098;13.716;2024-02-26T10:55:00;98757.91;;;18.68;36.19
84267;BME280;74414;51.098;13.716;2024-02-26T10:57:29;98757.13;;;19.58;35.25
84267;BME280;74414;51.098;13.716;2024-02-26T10:59:57;98751.66;;;18.64;36.33
84267;BME280;74414;51.098;13.716;2024-02-26T11:02:24;98754.44;;;18.52;36.34
84267;BME280;74414;51.098;13.716;2024-02-26T11:04:50;98741.28;;;17.61;38.20
84267;BME280;74414;51.098;13.716;2024-02-26T11:07:16;98741.34;;;17.45;38.74
84267;BME280;74414;51.098;13.716;2024-02-26T11:09:44;98736.22;;;17.43;38.55
84267;BME280;74414;51.098;13.716;2024-02-26T11:12:13;98747.28;;;18.00;37.74
84267;BME280;74414;51.098;13.716;2024-02-26T11:14:40;98743.22;;;15.78;41.68
84267;BME280;74414;51.098;13.716;2024-02-26T11:17:08;98744.56;;;15.89;42.07
84267;BME280;74414;51.098;13.716;2024-02-26T11:19:35;98739.16;;;16.50;41.23
84267;BME280;74414;51.098;13.716;2024-02-26T11:22:04;98746.41;;;15.96;42.16
84267;BME280;74414;51.098;13.716;2024-02-26T11:24:30;98748.03;;;16.29;41.00
84267;BME280;74414;51.098;13.716;2024-02-26T11:27:02;98732.09;;;15.58;42.34
84267;BME280;74414;51.098;13.716;2024-02-26T11:29:39;98719.34;;;13.83;46.22
84267;BME280;74414;51.098;13.716;2024-02-26T11:32:06;98728.66;;;13.42;47.01
84267;BME280;74414;51.098;13.716;2024-02-26T11:34:32;98725.19;;;13.92;46.38
84267;BME280;74414;51.098;13.716;2024-02-26T11:37:09;98738.22;;;13.41;47.15
84267;BME280;74414;51.098;13.716;2024-02-26T11:39:34;98743.25;;;13.20;47.76
84267;BME280;74414;51.098;13.716;2024-02-26T11:42:08;98732.63;;;14.25;45.66
84267;BME280;74414;51.098;13.716;2024-02-26T11:44:34;98739.47;;;16.68;40.93
84267;BME280;74414;51.098;13.716;2024-02-26T11:47:09;98742.75;;;17.65;38.42
84267;BME280;74414;51.098;13.716;2024-02-26T11:49:35;98746.47;;;17.75;38.20
84267;BME280;74414;51.098;13.716;2024-02-26T11:52:05;98735.69;;;17.61;38.05
84267;BME280;74414;51.098;13.716;2024-02-26T11:54:51;98736.56;;;17.16;39.12
84267;BME280;74414;51.098;13.716;2024-02-26T11:57:27;98735.19;;;16.64;40.17
84267;BME280;74414;51.098;13.716;2024-02-26T12:00:11;98732.66;;;16.37;40.76
84267;BME280;74414;51.098;13.716;2024-02-26T12:02:43;98743.66;;;16.44;40.71
84267;BME280;74414;51.098;13.716;2024-02-26T12:05:12;98738.59;;;16.55;40.76
84267;BME280;74414;51.098;13.716;2024-02-26T12:07:48;98737.09;;;16.18;40.79
84267;BME280;74414;51.098;13.716;2024-02-26T12:10:37;98736.50;;;14.97;44.01
84267;BME280;74414;51.098;13.716;2024-02-26T12:13:08;98738.53;;;14.04;45.63
84267;BME280;74414;51.098;13.716;2024-02-26T12:15:39;98758.22;;;13.29;47.48
84267;BME280;74414;51.098;13.716;2024-02-26T12:18:10;98738.84;;;12.85;48.65
84267;BME280;74414;51.098;13.716;2024-02-26T12:20:37;98745.03;;;12.62;49.32
84267;BME280;74414;51.098;13.716;2024-02-26T12:23:03;98749.09;;;12.51;49.63
84267;BME280;74414;51.098;13.716;2024-02-26T12:25:32;98753.78;;;12.17;49.95
84267;BME280;74414;51.098;13.716;2024-02-26T12:27:59;98751.59;;;11.87;51.39
84267;BME280;74414;51.098;13.716;2024-02-26T12:30:25;98754.81;;;11.78;51.63
84267;BME280;74414;51.098;13.716;2024-02-26T12:32:52;98756.03;;;11.70;51.96
84267;BME280;74414;51.098;13.716;2024-02-26T12:35:27;98748.53;;;11.67;52.40
84267;BME280;74414;51.098;13.716;2024-02-26T12:37:53;98751.13;;;11.96;51.56
84267;BME280;74414;51.098;13.716;2024-02-26T12:40:20;98746.66;;;12.12;51.70
84267;BME280;74414;51.098;13.716;2024-02-26T12:42:45;98750.69;;;12.01;51.67
84267;BME280;74414;51.098;13.716;2024-02-26T12:45:12;98749.22;;;12.37;51.12
84267;BME280;74414;51.098;13.716;2024-02-26T12:47:39;98747.84;;;12.55;50.23
84267;BME280;74414;51.098;13.716;2024-02-26T12:50:05;98742.34;;;12.52;50.12